Time;durP1;ratioP1;P1;durP2;ratioP2;P2;SDS_P1;SDS_P2;PMS_P1;PMS_P2;Temp;Humidity;BMP_temperature;BMP_pressure;BME280_temperature;BME280_humidity;BME280_pressure;Samples;Min_cycle;Max_cycle;Signal;HPM_P1;HPM_P2
2022/05/26 00:00:59;;;;;;;247.27;129.57;;;;;;;;;;5052374;28;20231;-52
2022/05/26 00:03:25;;;;;;;232.27;126.90;;;14.40;1.00;;;;;;5052681;28;20736;-52
2022/05/26 00:05:51;;;;;;;226.67;124.50;;;14.50;1.00;;;;;;5053294;28;20294;-52
2022/05/26 00:08:17;;;;;;;244.47;129.77;;;;;;;;;;5053284;28;20257;-52
2022/05/26 00:10:43;;;;;;;233.73;126.20;;;;;;;;;;5052440;28;20211;-52
2022/05/26 00:13:08;;;;;;;237.17;129.40;;;14.60;1.00;;;;;;5052377;28;20215;-52
2022/05/26 00:15:35;;;;;;;217.53;121.67;;;;;;;;;;5052474;28;20295;-52
2022/05/26 00:18:00;;;;;;;220.50;122.50;;;14.40;1.00;;;;;;5051951;28;20216;-52
2022/05/26 00:20:26;;;;;;;234.90;126.57;;;;;;;;;;5052111;28;20646;-52
2022/05/26 00:22:52;;;;;;;180.90;112.17;;;;;;;;;;5052733;28;20505;-52
2022/05/26 00:25:18;;;;;;;220.20;122.20;;;14.50;1.00;;;;;;5052549;28;20269;-52
2022/05/26 00:27:43;;;;;;;217.07;120.93;;;14.80;1.00;;;;;;5052210;28;20699;-52
2022/05/26 00:30:10;;;;;;;180.47;110.87;;;14.60;1.00;;;;;;5051935;28;20203;-52
2022/05/26 00:32:35;;;;;;;194.17;115.40;;;14.70;1.00;;;;;;5052157;28;20176;-52
2022/05/26 00:35:01;;;;;;;207.07;118.43;;;;;;;;;;5052174;28;20191;-52
2022/05/26 00:37:27;;;;;;;216.20;119.93;;;;;;;;;;5052167;28;20216;-52
2022/05/26 00:39:52;;;;;;;219.80;122.20;;;14.50;1.00;;;;;;5051823;28;20242;-52
2022/05/26 00:42:18;;;;;;;225.03;124.73;;;;;;;;;;5051884;28;20227;-52
2022/05/26 00:44:44;;;;;;;240.20;128.77;;;;;;;;;;5052054;28;20180;-52
2022/05/26 00:47:20;;;;;;;227.90;122.47;;;14.40;1.00;;;;;;5052130;28;20199;-52
2022/05/26 00:49:59;;;;;;;228.90;124.27;;;14.40;1.00;;;;;;5051852;28;20230;-52
2022/05/26 00:52:33;;;;;;;221.83;122.37;;;14.50;1.00;;;;;;5051790;28;20211;-52
2022/05/26 00:55:05;;;;;;;236.70;125.57;;;14.40;1.00;;;;;;5051902;28;20222;-52
2022/05/26 00:57:38;;;;;;;233.90;127.33;;;14.40;1.00;;;;;;5051773;28;20226;-52
2022/05/26 01:00:09;;;;;;;210.73;119.50;;;14.20;1.00;;;;;;5051252;28;20223;-52
2022/05/26 01:02:38;;;;;;;225.23;123.97;;;14.40;1.00;;;;;;5051823;28;20310;-51
2022/05/26 01:05:10;;;;;;;202.93;117.07;;;14.60;1.00;;;;;;5051703;28;20651;-52
2022/05/26 01:07:38;;;;;;;229.27;125.97;;;14.20;1.00;;;;;;5051172;28;20227;-52
2022/05/26 01:10:05;;;;;;;233.43;125.20;;;14.30;1.00;;;;;;5051495;28;20235;-52
2022/05/26 01:12:30;;;;;;;214.07;118.90;;;14.30;1.00;;;;;;5051132;28;20235;-52
2022/05/26 01:15:01;;;;;;;219.50;121.90;;;14.90;1.00;;;;;;5051411;28;20235;-52
2022/05/26 01:17:48;;;;;;;230.63;126.30;;;14.70;1.00;;;;;;5050798;28;20191;-52
2022/05/26 01:20:52;;;;;;;233.83;127.90;;;14.20;1.00;;;;;;5051729;28;20182;-52
2022/05/26 01:23:39;;;;;;;225.97;124.67;;;14.50;1.00;;;;;;5051846;28;20203;-52
2022/05/26 01:26:36;;;;;;;207.30;118.60;;;14.50;1.00;;;;;;5051447;28;20244;-52
2022/05/26 01:29:52;;;;;;;186.83;111.17;;;14.20;1.00;;;;;;5051229;28;20556;-52
2022/05/26 01:32:18;;;;;;;211.10;118.43;;;;;;;;;;5044060;28;20628;-52
2022/05/26 01:35:01;;;;;;;201.37;117.17;;;14.50;1.00;;;;;;5050753;28;20219;-52
2022/05/26 01:37:54;;;;;;;168.87;107.30;;;14.30;1.00;;;;;;5051186;28;20227;-52
2022/05/26 01:40:23;;;;;;;169.60;108.90;;;14.20;1.00;;;;;;5050623;28;20644;-52
2022/05/26 01:43:01;;;;;;;212.47;119.27;;;14.30;1.00;;;;;;5050825;28;20269;-52
2022/05/26 01:45:47;;;;;;;174.38;108.60;;;14.40;1.00;;;;;;5050652;28;20300;-52
2022/05/26 01:48:22;;;;;;;211.53;120.93;;;14.50;1.00;;;;;;5050643;28;20306;-52
2022/05/26 01:50:58;;;;;;;204.33;117.80;;;14.30;1.00;;;;;;5050830;28;20606;-52
2022/05/26 01:53:52;;;;;;;169.03;108.87;;;14.50;1.00;;;;;;5051234;28;20155;-52
2022/05/26 01:56:43;;;;;;;211.20;117.47;;;14.60;1.00;;;;;;5050936;28;20222;-52
2022/05/26 01:59:17;;;;;;;197.20;115.23;;;14.40;1.00;;;;;;5037457;28;20226;-51
2022/05/26 02:01:51;;;;;;;203.50;117.03;;;14.40;1.00;;;;;;5037144;28;20222;-52
2022/05/26 02:04:36;;;;;;;178.67;110.67;;;14.30;1.00;;;;;;5032518;28;20212;-52
2022/05/26 02:07:18;;;;;;;187.73;111.77;;;14.30;1.00;;;;;;5043460;28;20222;-52
2022/05/26 02:09:45;;;;;;;201.10;118.10;;;14.50;1.00;;;;;;5030323;28;20208;-51
2022/05/26 02:12:25;;;;;;;195.90;114.43;;;14.40;1.00;;;;;;5030605;28;20669;-52
2022/05/26 02:14:56;;;;;;;191.93;112.97;;;14.20;1.00;;;;;;5030375;28;20211;-51
2022/05/26 02:17:32;;;;;;;195.47;115.60;;;14.20;1.00;;;;;;5029677;28;20204;-52
2022/05/26 02:20:04;;;;;;;193.40;114.47;;;14.50;1.00;;;;;;5030537;28;20286;-52
2022/05/26 02:22:39;;;;;;;176.37;111.53;;;14.40;1.00;;;;;;5030459;28;20254;-52
2022/05/26 02:25:18;;;;;;;176.37;108.73;;;14.80;1.00;;;;;;5030482;28;20215;-52
2022/05/26 02:27:44;;;;;;;187.20;110.67;;;14.40;1.00;;;;;;5030258;28;20285;-52
2022/05/26 02:30:13;;;;;;;174.00;109.00;;;14.30;1.00;;;;;;5048186;28;20241;-51
2022/05/26 02:32:58;;;;;;;168.83;108.33;;;14.50;1.00;;;;;;5050233;28;20179;-52
2022/05/26 02:35:27;;;;;;;152.73;102.47;;;14.30;1.00;;;;;;5050446;28;20171;-52
2022/05/26 02:37:57;;;;;;;173.43;110.23;;;14.20;1.00;;;;;;5050217;28;20220;-52
2022/05/26 02:40:23;;;;;;;162.23;107.73;;;14.30;1.00;;;;;;5049753;28;20568;-52
2022/05/26 02:42:54;;;;;;;168.73;105.87;;;14.40;1.00;;;;;;5050335;28;20276;-52
2022/05/26 02:45:42;;;;;;;203.17;115.90;;;14.20;1.00;;;;;;5049897;28;20239;-52
2022/05/26 02:48:31;;;;;;;171.63;108.80;;;14.20;1.00;;;;;;5050194;28;20239;-52
2022/05/26 02:51:14;;;;;;;207.57;118.23;;;14.20;1.00;;;;;;5050042;28;20211;-52
2022/05/26 02:54:04;;;;;;;194.63;113.60;;;14.20;1.00;;;;;;5030029;28;20156;-52
2022/05/26 02:56:56;;;;;;;187.80;112.97;;;14.30;1.00;;;;;;5029691;28;20215;-52
2022/05/26 02:59:53;;;;;;;165.40;105.00;;;14.20;1.00;;;;;;5030825;28;20521;-52
2022/05/26 03:02:46;;;;;;;187.70;108.87;;;14.60;1.00;;;;;;5030211;28;20299;-52
2022/05/26 03:05:19;;;;;;;181.13;108.10;;;14.30;1.00;;;;;;5020047;28;20204;-52
2022/05/26 03:07:48;;;;;;;160.37;103.27;;;14.30;1.00;;;;;;5029766;28;20258;-52
2022/05/26 03:10:15;;;;;;;180.90;108.77;;;14.30;1.00;;;;;;5029669;28;20239;-52
2022/05/26 03:12:41;;;;;;;184.37;110.27;;;14.40;1.00;;;;;;5029871;28;20236;-52
2022/05/26 03:15:08;;;;;;;179.73;110.40;;;14.30;1.00;;;;;;5029632;28;20208;-52
2022/05/26 03:17:35;;;;;;;189.57;113.60;;;14.60;1.00;;;;;;5029876;28;20194;-52
2022/05/26 03:20:01;;;;;;;186.90;111.67;;;;;;;;;;5050278;28;20202;-52
2022/05/26 03:22:27;;;;;;;214.73;116.90;;;14.20;1.00;;;;;;5049511;28;20251;-52
2022/05/26 03:24:53;;;;;;;216.03;118.00;;;14.40;1.00;;;;;;5049661;28;20231;-52
2022/05/26 03:27:19;;;;;;;214.37;120.63;;;14.30;1.00;;;;;;5031495;28;20700;-52
2022/05/26 03:29:45;;;;;;;172.73;109.73;;;14.60;1.00;;;;;;5051883;28;20179;-52
2022/05/26 03:32:10;;;;;;;192.53;113.10;;;;;;;;;;5054015;28;20203;-52
2022/05/26 03:42:51;;;;;;;196.97;114.67;;;14.60;1.00;;;;;;5053048;28;20277;-52
2022/05/26 03:45:19;;;;;;;209.93;118.17;;;14.40;1.00;;;;;;5052729;28;20274;-52
2022/05/26 03:47:44;;;;;;;198.83;119.73;;;14.60;1.00;;;;;;5052692;28;20214;-52
2022/05/26 03:50:10;;;;;;;223.07;124.87;;;14.60;1.00;;;;;;5053507;28;20172;-52
2022/05/26 03:52:36;;;;;;;225.53;122.33;;;14.50;1.00;;;;;;5052833;28;20245;-52
2022/05/26 03:55:02;;;;;;;187.27;112.90;;;;;;;;;;5052893;28;20251;-52
2022/05/26 03:57:30;;;;;;;222.80;123.33;;;14.60;1.00;;;;;;5052638;28;20222;-52
2022/05/26 03:59:56;;;;;;;247.37;131.27;;;;;;;;;;5051148;28;20216;-50
2022/05/26 04:02:22;;;;;;;238.27;130.17;;;;;;;;;;5032349;28;20222;-51
2022/05/26 04:04:48;;;;;;;258.90;139.33;;;;;;;;;;5026351;28;20220;-50
2022/05/26 04:07:14;;;;;;;258.50;134.63;;;14.60;99.90;;;;;;5031429;28;20223;-50
2022/05/26 04:09:40;;;;;;;247.90;131.80;;;;;;;;;;5031207;28;20235;-51
2022/05/26 04:12:07;;;;;;;284.20;145.40;;;14.70;99.90;;;;;;5035395;28;20273;-49
2022/05/26 04:14:33;;;;;;;248.00;130.23;;;14.70;99.90;;;;;;5030131;28;20250;-51
2022/05/26 04:16:59;;;;;;;223.57;126.90;;;;;;;;;;5030237;28;20205;-50
2022/05/26 04:19:25;;;;;;;276.90;139.00;;;14.70;99.90;;;;;;5029440;28;20214;-50
2022/05/26 04:24:36;;;;;;;238.80;125.20;;;;;;;;;;5030319;28;20750;-50
2022/05/26 04:27:01;;;;;;;290.80;152.33;;;;;;;;;;5028923;28;20353;-50
2022/05/26 04:29:27;;;;;;;243.60;132.90;;;;;;;;;;5033089;28;20655;-50
2022/05/26 04:31:53;;;;;;;253.87;131.63;;;;;;;;;;5028004;28;20185;-50
2022/05/26 04:34:19;;;;;;;260.93;128.57;;;;;;;;;;5030933;28;20215;-50
2022/05/26 04:36:46;;;;;;;217.60;121.43;;;14.90;99.90;;;;;;5030709;28;20807;-51
2022/05/26 04:39:12;;;;;;;241.73;130.73;;;;;;;;;;5031352;28;20232;-49
2022/05/26 04:41:38;;;;;;;218.97;125.00;;;;;;;;;;5022034;28;20216;-51
2022/05/26 04:44:04;;;;;;;256.43;133.00;;;;;;;;;;5032974;28;20176;-50
2022/05/26 04:46:29;;;;;;;311.07;146.50;;;;;;;;;;5028048;28;20241;-51
2022/05/26 04:48:55;;;;;;;360.13;163.77;;;15.30;38.20;;;;;;5031036;28;20216;-51
2022/05/26 04:51:21;;;;;;;293.30;145.60;;;;;;;;;;5024843;28;20222;-50
2022/05/26 04:53:47;;;;;;;303.50;150.97;;;;;;;;;;5030087;28;20667;-50
2022/05/26 04:56:13;;;;;;;307.07;150.87;;;;;;;;;;5032318;28;20544;-50
2022/05/26 04:58:39;;;;;;;326.07;168.53;;;;;;;;;;5031116;28;20216;-50
2022/05/26 05:01:15;;;;;;;298.47;152.70;;;15.20;1.00;;;;;;5031814;28;20306;-50
2022/05/26 05:03:41;;;;;;;354.63;169.27;;;;;;;;;;5023842;28;20682;-51
2022/05/26 05:06:07;;;;;;;307.73;152.67;;;;;;;;;;5027820;28;20211;-51
2022/05/26 05:08:33;;;;;;;246.30;142.57;;;;;;;;;;5029681;28;20203;-51
2022/05/26 05:10:59;;;;;;;262.83;146.67;;;;;;;;;;5030884;28;20195;-51
2022/05/26 05:13:25;;;;;;;225.20;128.13;;;;;;;;;;5031356;28;20207;-52
2022/05/26 05:15:55;;;;;;;301.00;146.20;;;15.70;45.20;;;;;;5031649;28;20223;-52
2022/05/26 05:18:21;;;;;;;212.45;127.82;;;15.70;1.00;;;;;;5030514;28;20251;-52
2022/05/26 05:20:47;;;;;;;318.97;151.67;;;;;;;;;;5028333;28;20215;-51
2022/05/26 05:23:13;;;;;;;238.03;133.57;;;15.40;99.90;;;;;;5033827;28;20215;-52
2022/05/26 05:25:43;;;;;;;290.63;137.27;;;15.80;1.00;;;;;;5026898;28;20216;-52
2022/05/26 05:28:14;;;;;;;226.83;127.80;;;16.20;65.40;;;;;;5031024;28;20590;-52
2022/05/26 05:30:50;;;;;;;188.47;115.13;;;15.90;1.00;;;;;;5029835;28;20849;-51
2022/05/26 05:33:21;;;;;;;326.67;144.87;;;16.00;99.90;;;;;;5027961;28;20211;-51
2022/05/26 05:36:01;;;;;;;287.23;140.97;;;16.10;99.90;;;;;;5033451;28;20342;-52
2022/05/26 05:38:28;;;;;;;239.10;131.75;;;;;;;;;;5030694;28;20211;-51
2022/05/26 05:40:54;;;;;;;324.87;166.70;;;;;;;;;;5022728;28;20706;-51
2022/05/26 05:43:20;;;;;;;325.90;166.37;;;;;;;;;;5027992;28;20638;-52
2022/05/26 05:45:46;;;;;;;300.23;162.67;;;;;;;;;;5029231;28;20224;-51
2022/05/26 05:48:12;;;;;;;294.40;151.02;;;;;;;;;;5029791;28;20278;-51
2022/05/26 05:50:38;;;;;;;279.20;150.85;;;;;;;;;;5030601;28;20207;-51
2022/05/26 05:53:04;;;;;;;278.58;144.15;;;16.60;1.00;;;;;;5030947;28;20664;-52
2022/05/26 05:55:31;;;;;;;322.30;161.57;;;16.30;1.00;;;;;;5032944;28;20310;-52
2022/05/26 05:57:57;;;;;;;352.67;162.55;;;;;;;;;;5026534;28;20319;-52
2022/05/26 06:00:23;;;;;;;559.83;227.15;;;;;;;;;;4995624;28;20220;-52
2022/05/26 06:02:49;;;;;;;348.88;169.07;;;;;;;;;;5006730;28;20603;-52
2022/05/26 06:05:15;;;;;;;316.23;164.23;;;;;;;;;;5023777;28;20188;-51
2022/05/26 06:07:41;;;;;;;298.38;161.80;;;;;;;;;;5028706;28;20281;-51
2022/05/26 06:10:12;;;;;;;271.17;152.60;;;16.70;99.90;;;;;;5031624;28;20223;-52
2022/05/26 06:12:38;;;;;;;258.88;150.90;;;;;;;;;;5027811;28;20219;-51
2022/05/26 06:15:04;;;;;;;324.10;175.75;;;;;;;;;;5019041;28;20302;-51
2022/05/26 06:17:30;;;;;;;310.70;166.18;;;16.90;1.00;;;;;;5020734;28;20213;-52
2022/05/26 06:19:56;;;;;;;352.43;188.00;;;;;;;;;;5024309;28;20643;-52
2022/05/26 06:22:22;;;;;;;243.60;143.30;;;16.80;99.90;;;;;;5027696;28;20227;-51
2022/05/26 06:24:49;;;;;;;268.17;148.13;;;16.80;99.90;;;;;;5033772;28;20700;-51
2022/05/26 06:30:05;;;;;;;329.20;157.27;;;17.10;1.00;;;;;;5028080;28;20237;-51
2022/05/26 06:38:03;;;;;;;241.32;142.25;;;15.00;99.90;;;;;;5029658;28;20309;-53
2022/05/26 06:40:29;;;;;;;255.02;140.23;;;;;;;;;;5010483;28;20227;-53
2022/05/26 06:42:58;;;;;;;226.10;131.10;;;;;;;;;;5034449;28;20706;-54
2022/05/26 06:45:23;;;;;;;237.40;130.50;;;17.00;99.90;;;;;;5027276;28;20250;-54
2022/05/26 06:47:49;;;;;;;242.52;138.45;;;;;;;;;;5026618;28;20246;-53
2022/05/26 06:50:15;;;;;;;260.08;144.32;;;;;;;;;;5029543;28;20574;-53
2022/05/26 06:52:41;;;;;;;157.40;111.75;;;;;;;;;;5033032;28;20204;-53
2022/05/26 06:55:08;;;;;;;203.45;122.75;;;17.10;99.90;;;;;;5025042;28;20242;-54
2022/05/26 06:57:34;;;;;;;266.35;143.70;;;;;;;;;;5027372;28;20273;-54
2022/05/26 07:00:00;;;;;;;266.90;150.20;;;;;;;;;;5030487;28;20216;-53
2022/05/26 07:02:26;;;;;;;251.40;142.05;;;17.20;1.00;;;;;;5022487;28;20200;-53
2022/05/26 07:04:52;;;;;;;243.63;139.30;;;;;;;;;;5033711;28;20195;-54
2022/05/26 07:07:18;;;;;;;252.10;137.20;;;;;;;;;;5033268;28;20224;-53
2022/05/26 07:09:45;;;;;;;192.20;117.28;;;;;;;;;;5032998;28;20696;-54
2022/05/26 07:12:11;;;;;;;315.17;152.40;;;17.40;99.90;;;;;;5031323;28;20220;-52
2022/05/26 07:14:37;;;;;;;273.50;146.25;;;17.50;99.90;;;;;;5031722;28;20175;-52
2022/05/26 07:17:03;;;;;;;311.50;165.43;;;17.30;1.00;;;;;;5030267;28;20775;-53
2022/05/26 07:19:33;;;;;;;340.38;159.35;;;17.80;99.90;;;;;;5031842;28;20220;-51
2022/05/26 07:21:59;;;;;;;290.02;150.90;;;17.60;1.00;;;;;;5029333;28;20216;-53
2022/05/26 07:24:25;;;;;;;204.70;126.43;;;;;;;;;;5024726;28;20225;-52
2022/05/26 07:26:51;;;;;;;213.60;134.52;;;;;;;;;;5032472;28;20227;-51
2022/05/26 07:29:17;;;;;;;239.27;142.77;;;;;;;;;;5031777;28;20207;-51
2022/05/26 07:31:43;;;;;;;270.23;152.32;;;;;;;;;;5037754;28;20296;-52
2022/05/26 07:34:09;;;;;;;257.77;145.80;;;;;;;;;;5030771;28;20292;-52
2022/05/26 07:42:12;;;;;;;301.02;160.25;;;18.30;98.90;;;;;;5031059;28;20218;-51
2022/05/26 07:44:40;;;;;;;324.77;167.73;;;18.20;1.00;;;;;;5032775;28;21293;-52
2022/05/26 07:47:07;;;;;;;319.40;166.90;;;18.10;99.90;;;;;;5034105;28;20212;-51
2022/05/26 07:49:34;;;;;;;385.80;182.52;;;18.00;1.00;;;;;;5028466;28;20310;-52
2022/05/26 07:52:01;;;;;;;426.58;190.75;;;18.50;99.90;;;;;;5027338;28;20212;-52
2022/05/26 07:54:27;;;;;;;293.50;157.25;;;;;;;;;;5032026;28;20295;-52
2022/05/26 07:56:53;;;;;;;319.48;168.02;;;;;;;;;;5030333;28;20208;-52
2022/05/26 07:59:20;;;;;;;274.52;150.10;;;;;;;;;;5037443;28;20234;-53
2022/05/26 08:01:45;;;;;;;339.67;174.63;;;18.50;99.90;;;;;;5021490;28;20723;-52
2022/05/26 08:04:11;;;;;;;319.80;163.55;;;;;;;;;;5030675;28;20220;-52
2022/05/26 08:06:37;;;;;;;359.40;185.73;;;;;;;;;;5029353;28;20299;-52
2022/05/26 08:09:03;;;;;;;354.70;183.60;;;;;;;;;;5028251;28;20211;-52
2022/05/26 08:11:29;;;;;;;342.58;179.98;;;;;;;;;;5013702;28;20203;-52
2022/05/26 08:13:55;;;;;;;336.63;178.75;;;;;;;;;;5025644;28;20235;-57
2022/05/26 08:16:21;;;;;;;296.17;167.98;;;;;;;;;;5028493;28;20215;-51
2022/05/26 08:18:47;;;;;;;228.48;144.63;;;;;;;;;;5033232;28;20322;-52
2022/05/26 08:21:16;;;;;;;269.08;160.65;;;18.50;1.00;;;;;;5033675;28;20584;-51
2022/05/26 08:23:42;;;;;;;318.08;179.48;;;;;;;;;;5020349;28;20537;-51
2022/05/26 08:26:07;;;;;;;310.95;175.20;;;18.50;34.10;;;;;;5024136;28;20191;-52
2022/05/26 08:28:33;;;;;;;271.83;163.32;;;;;;;;;;5030336;28;20222;-51
2022/05/26 08:31:00;;;;;;;344.70;189.45;;;;;;;;;;5026506;28;20222;-51
2022/05/26 08:33:26;;;;;;;254.85;158.55;;;18.90;99.90;;;;;;5027709;28;20212;-52
2022/05/26 08:36:07;;;;;;;360.90;186.85;;;19.00;99.90;;;;;;5025046;28;20223;-52
2022/05/26 08:38:33;;;;;;;250.13;154.63;;;18.90;99.90;;;;;;5032914;28;20647;-52
2022/05/26 08:40:59;;;;;;;305.35;171.52;;;18.90;1.00;;;;;;5037473;28;20233;-52
2022/05/26 08:43:40;;;;;;;265.52;157.68;;;19.00;99.90;;;;;;5036561;28;20223;-52
2022/05/26 08:46:09;;;;;;;234.05;146.18;;;19.00;1.00;;;;;;5044859;28;20215;-53
2022/05/26 08:49:03;;;;;;;235.32;145.38;;;18.90;1.00;;;;;;5042604;28;20211;-52
2022/05/26 08:51:43;;;;;;;196.43;138.43;;;18.80;1.00;;;;;;5043224;28;21020;-53
2022/05/26 08:54:16;;;;;;;221.85;141.93;;;18.50;1.00;;;;;;5029532;28;20641;-53
2022/05/26 08:56:43;;;;;;;254.73;152.65;;;17.60;1.00;;;;;;5049949;28;20184;-52
2022/05/26 08:59:13;;;;;;;254.05;148.55;;;17.50;24.90;;;;;;5048138;28;20214;-52
2022/05/26 09:01:38;;;;;;;237.27;140.57;;;17.10;87.70;;;;;;5048457;28;20223;-52
2022/05/26 09:04:05;;;;;;;248.48;143.13;;;;;;;;;;5045811;28;20625;-52
2022/05/26 09:12:55;;;;;;;256.27;147.32;;;16.70;99.90;;;;;;5046997;28;20235;-52
2022/05/26 09:14:52;;;;;;;258.43;145.90;;;16.50;99.90;;;;;;5046507;28;20305;-52
2022/05/26 09:17:18;;;;;;;240.10;141.95;;;;;;;;;;5046240;28;20294;-52
2022/05/26 09:19:44;;;;;;;231.57;138.85;;;;;;;;;;5042410;28;20208;-52
2022/05/26 09:22:33;;;;;;;224.02;138.68;;;16.30;99.90;;;;;;5046129;28;20225;-52
2022/05/26 09:24:59;;;;;;;240.63;142.27;;;16.10;99.90;;;;;;5044855;28;20696;-52
2022/05/26 09:27:31;;;;;;;244.55;140.07;;;16.50;99.90;;;;;;5043051;28;20710;-52
2022/05/26 09:30:18;;;;;;;247.82;142.18;;;16.50;99.90;;;;;;5047327;28;20211;-53
2022/05/26 09:32:44;;;;;;;253.35;141.30;;;16.50;99.90;;;;;;5045484;28;20176;-53
2022/05/26 09:35:18;;;;;;;276.55;150.40;;;16.90;99.90;;;;;;5045387;28;20249;-52
2022/05/26 09:37:47;;;;;;;268.87;148.00;;;17.30;97.60;;;;;;5043111;28;20230;-52
2022/05/26 09:40:17;;;;;;;274.27;147.80;;;16.90;99.90;;;;;;5047028;28;20706;-52
2022/05/26 09:42:44;;;;;;;260.15;139.48;;;17.10;99.90;;;;;;5047088;28;20636;-53
2022/05/26 09:45:14;;;;;;;276.00;150.30;;;16.90;96.40;;;;;;5047886;28;20591;-53
2022/05/26 09:47:48;;;;;;;257.13;141.43;;;17.30;76.60;;;;;;5047247;28;20203;-52
2022/05/26 09:50:48;;;;;;;267.38;146.68;;;16.90;80.50;;;;;;5047477;28;20191;-53
2022/05/26 09:53:28;;;;;;;259.27;138.18;;;15.70;88.90;;;;;;5040760;28;20216;-52
2022/05/26 09:55:55;;;;;;;263.63;146.70;;;;;;;;;;5030373;28;20222;-53
2022/05/26 09:58:28;;;;;;;277.17;150.70;;;17.30;42.10;;;;;;5045343;28;20231;-52
2022/05/26 10:01:29;;;;;;;260.63;146.70;;;17.30;18.10;;;;;;5048228;28;20215;-53
2022/05/26 10:04:18;;;;;;;259.38;141.10;;;17.30;8.70;;;;;;5041363;28;20306;-53
2022/05/26 10:06:57;;;;;;;269.63;149.07;;;17.40;1.00;;;;;;5041968;28;20789;-53
2022/05/26 10:09:41;;;;;;;283.42;156.07;;;17.80;1.00;;;;;;5032618;28;20214;-53
2022/05/26 10:12:41;;;;;;;263.45;148.88;;;17.90;1.00;;;;;;5045655;28;20211;-53
2022/05/26 10:15:26;;;;;;;258.30;145.90;;;18.20;99.90;;;;;;5037997;28;20822;-52
2022/05/26 10:18:28;;;;;;;270.05;147.38;;;18.40;1.00;;;;;;5040374;28;20358;-52
2022/05/26 10:21:35;;;;;;;270.50;149.05;;;18.60;1.00;;;;;;5037865;28;20217;-52
2022/05/26 10:24:33;;;;;;;269.83;149.38;;;18.60;1.00;;;;;;5041705;28;20483;-52
2022/05/26 10:27:27;;;;;;;307.98;164.90;;;18.80;99.90;;;;;;5046286;28;20211;-52
2022/05/26 10:30:30;;;;;;;337.98;175.00;;;19.00;1.00;;;;;;5042646;28;20354;-52
2022/05/26 10:33:27;;;;;;;316.90;165.40;;;19.10;1.00;;;;;;5035637;28;20215;-52
2022/05/26 10:36:05;;;;;;;313.52;163.68;;;19.50;1.00;;;;;;5034905;28;20212;-52
2022/05/26 10:39:06;;;;;;;301.85;165.45;;;19.60;1.00;;;;;;5040178;28;20208;-52
2022/05/26 10:41:44;;;;;;;296.02;165.30;;;19.60;1.00;;;;;;5042324;28;20672;-53
2022/05/26 10:44:18;;;;;;;332.17;174.45;;;19.90;1.00;;;;;;5041614;28;20675;-53
2022/05/26 10:47:05;;;;;;;314.15;168.85;;;20.10;1.00;;;;;;5046801;28;20237;-53
2022/05/26 10:49:32;;;;;;;325.75;175.80;;;;;;;;;;5039878;28;20219;-52
2022/05/26 10:52:16;;;;;;;318.33;173.00;;;20.10;1.00;;;;;;5041500;28;20218;-52
2022/05/26 10:54:51;;;;;;;289.60;159.45;;;20.40;99.90;;;;;;5047086;28;20211;-53
2022/05/26 10:57:43;;;;;;;324.92;173.20;;;20.50;1.00;;;;;;5042404;28;20386;-52
2022/05/26 11:00:15;;;;;;;312.17;169.50;;;20.50;91.20;;;;;;5038698;28;20716;-53
2022/05/26 11:02:51;;;;;;;311.95;168.57;;;20.90;63.80;;;;;;5045258;28;20282;-53
2022/05/26 11:05:36;;;;;;;316.60;181.10;;;20.60;1.00;;;;;;5044966;28;20226;-53
2022/05/26 11:08:13;;;;;;;291.95;162.95;;;20.60;1.00;;;;;;5046223;28;20273;-52
2022/05/26 11:10:47;;;;;;;321.67;186.25;;;20.60;1.00;;;;;;5040508;28;20294;-52
2022/05/26 11:13:22;;;;;;;322.30;181.93;;;20.50;1.00;;;;;;5047449;28;20217;-52
2022/05/26 11:18:52;;;;;;;351.85;185.63;;;20.90;1.00;;;;;;5034378;28;20218;-53
2022/05/26 11:21:21;;;;;;;336.55;180.93;;;21.00;1.00;;;;;;5033765;28;20219;-53
2022/05/26 11:23:47;;;;;;;351.48;195.93;;;;;;;;;;5034877;28;20222;-53
2022/05/26 11:26:28;;;;;;;350.98;194.00;;;21.00;1.00;;;;;;5036450;28;20693;-53
2022/05/26 11:29:08;;;;;;;358.65;192.82;;;21.20;1.00;;;;;;5032641;28;20227;-53
2022/05/26 11:37:37;;;;;;;338.10;179.55;;;21.20;1.00;;;;;;5039636;28;20314;-54
2022/05/26 11:40:07;;;;;;;332.52;175.45;;;20.80;1.00;;;;;;4999969;28;1050982;-53
2022/05/26 11:42:54;;;;;;;341.73;179.02;;;20.80;1.00;;;;;;5036123;28;20224;-52
2022/05/26 11:45:33;;;;;;;364.73;193.38;;;21.00;99.90;;;;;;5037043;28;21318;-54
2022/05/26 11:48:04;;;;;;;346.25;183.85;;;21.20;99.90;;;;;;5038175;28;20247;-53
2022/05/26 11:50:30;;;;;;;342.67;180.85;;;;;;;;;;5041819;28;20253;-52
2022/05/26 11:52:56;;;;;;;362.05;196.57;;;;;;;;;;5040473;28;20211;-53
2022/05/26 11:55:32;;;;;;;343.10;193.32;;;21.20;99.90;;;;;;5036875;28;20227;-54
2022/05/26 11:58:16;;;;;;;349.63;191.25;;;21.20;99.90;;;;;;5039836;28;20218;-54
2022/05/26 12:00:44;;;;;;;330.70;182.95;;;;;;;;;;5038247;28;20215;-53
2022/05/26 12:03:29;;;;;;;393.80;205.50;;;21.70;99.90;;;;;;5040486;28;20306;-53
2022/05/26 12:06:06;;;;;;;356.88;187.60;;;21.80;99.90;;;;;;5036755;28;20227;-53
2022/05/26 12:08:55;;;;;;;349.25;181.80;;;21.50;99.90;;;;;;5042596;28;20199;-53
2022/05/26 12:11:53;;;;;;;357.58;187.07;;;21.60;99.90;;;;;;5034323;28;20299;-53
2022/05/26 12:14:29;;;;;;;337.75;187.23;;;21.20;99.90;;;;;;5037308;28;20215;-53
2022/05/26 12:17:32;;;;;;;367.17;201.32;;;21.30;99.90;;;;;;5038595;28;20250;-53
2022/05/26 12:20:10;;;;;;;400.67;211.88;;;21.10;99.90;;;;;;5035026;28;20215;-53
2022/05/26 12:22:50;;;;;;;339.55;186.13;;;21.10;1.00;;;;;;5036011;28;20584;-54
2022/05/26 12:25:22;;;;;;;389.65;201.23;;;21.00;99.90;;;;;;5032384;28;20211;-53
2022/05/26 12:28:09;;;;;;;332.30;175.50;;;20.80;99.90;;;;;;5037180;28;20219;-54
2022/05/26 12:30:48;;;;;;;326.83;172.52;;;20.80;1.00;;;;;;5047611;28;20739;-54
2022/05/26 12:33:32;;;;;;;332.50;175.05;;;20.10;1.00;;;;;;5047548;28;20211;-54
2022/05/26 12:36:09;;;;;;;334.80;174.02;;;20.30;1.00;;;;;;5045145;28;20227;-54
2022/05/26 12:38:44;;;;;;;334.98;175.95;;;20.60;99.90;;;;;;5042292;28;20460;-54
2022/05/26 12:41:31;;;;;;;346.52;177.32;;;20.90;1.00;;;;;;5045224;28;20222;-54
2022/05/26 12:44:28;;;;;;;337.92;176.63;;;21.20;99.90;;;;;;5048633;28;20307;-54
2022/05/26 12:47:28;;;;;;;338.77;174.63;;;21.40;1.00;;;;;;5049386;28;20226;-54
2022/05/26 12:50:24;;;;;;;338.70;184.13;;;22.00;1.00;;;;;;5042096;28;20318;-54
2022/05/26 12:52:50;;;;;;;306.25;167.70;;;;;;;;;;5038001;28;20227;-54
2022/05/26 12:55:41;;;;;;;333.88;179.15;;;22.30;99.90;;;;;;5038638;28;20220;-54
2022/05/26 12:58:13;;;;;;;338.77;193.93;;;22.20;99.90;;;;;;5046743;28;20226;-54
2022/05/26 13:00:44;;;;;;;341.98;181.63;;;22.10;1.00;;;;;;5044033;28;20208;-54
2022/05/26 13:03:29;;;;;;;341.48;188.43;;;21.80;99.90;;;;;;5047817;28;20227;-53
2022/05/26 13:06:07;;;;;;;326.80;175.73;;;21.70;1.00;;;;;;5031944;28;20238;-53
2022/05/26 13:08:50;;;;;;;324.85;173.07;;;21.60;1.00;;;;;;5029765;28;20206;-53
2022/05/26 13:11:20;;;;;;;325.17;173.82;;;21.70;99.90;;;;;;5031204;28;20199;-53
2022/05/26 13:13:53;;;;;;;328.05;177.32;;;21.80;1.00;;;;;;5048788;28;20230;-53
2022/05/26 13:16:25;;;;;;;327.10;174.60;;;21.90;1.00;;;;;;5048991;28;20242;-53
2022/05/26 13:18:51;;;;;;;326.40;174.60;;;21.40;90.60;;;;;;5048832;28;20221;-53
2022/05/26 13:21:19;;;;;;;318.33;173.50;;;21.20;1.00;;;;;;5049273;28;20207;-53
2022/05/26 13:23:45;;;;;;;329.08;180.88;;;;;;;;;;5049158;28;20184;-53
2022/05/26 13:26:14;;;;;;;325.38;176.75;;;20.90;99.90;;;;;;5049422;28;20175;-53
2022/05/26 13:28:44;;;;;;;388.45;202.20;;;20.90;99.90;;;;;;5041666;28;20230;-53
2022/05/26 13:33:56;;;;;;;329.42;183.02;;;;;;;;;;5048985;28;20256;-53
2022/05/26 13:36:22;;;;;;;321.85;177.23;;;;;;;;;;5048500;28;20204;-53
2022/05/26 13:38:48;;;;;;;317.80;174.63;;;20.40;1.00;;;;;;5048449;28;20225;-53
2022/05/26 13:41:20;;;;;;;309.87;168.50;;;20.30;99.90;;;;;;5048588;28;20195;-53
2022/05/26 13:43:47;;;;;;;314.33;172.27;;;20.20;99.90;;;;;;5046678;28;20208;-53
2022/05/26 13:46:33;;;;;;;320.20;174.60;;;;;;;;;;5042636;28;20215;-53
2022/05/26 13:49:02;;;;;;;323.13;174.83;;;20.20;1.00;;;;;;5044714;28;20222;-53
2022/05/26 13:51:41;;;;;;;314.90;170.60;;;20.30;99.90;;;;;;5048342;28;20298;-53